createdAt,value
2022-09-25T00:01:19.706Z,22.20
2022-09-25T00:03:47.692Z,22.18
2022-09-25T00:06:17.537Z,22.19
2022-09-25T00:08:46.621Z,22.17
2022-09-25T00:11:17.544Z,22.10
2022-09-25T00:13:46.719Z,22.16
2022-09-25T00:16:17.205Z,22.15
2022-09-25T00:19:03.806Z,22.16
2022-09-25T00:21:33.018Z,22.14
2022-09-25T00:24:03.260Z,22.14
2022-09-25T00:26:33.136Z,22.15
2022-09-25T00:29:01.683Z,22.14
2022-09-25T00:31:31.064Z,22.11
2022-09-25T00:34:01.957Z,22.14
2022-09-25T00:36:30.664Z,22.13
2022-09-25T00:38:58.729Z,22.14
2022-09-25T00:41:30.161Z,22.14
2022-09-25T00:43:59.245Z,22.12
2022-09-25T00:46:30.231Z,22.14
2022-09-25T00:49:04.268Z,22.13
2022-09-25T00:51:41.240Z,22.12
2022-09-25T00:54:14.627Z,22.12
2022-09-25T00:56:45.732Z,22.10
2022-09-25T00:59:18.084Z,22.13
2022-09-25T01:01:46.511Z,22.12
2022-09-25T01:04:16.555Z,22.14
2022-09-25T01:06:44.606Z,22.09
2022-09-25T01:09:12.960Z,22.13
2022-09-25T01:11:40.835Z,22.13
2022-09-25T01:14:10.722Z,22.14
2022-09-25T01:16:46.355Z,22.14
2022-09-25T01:19:38.188Z,22.14
2022-09-25T01:22:16.842Z,22.15
2022-09-25T01:24:56.355Z,22.16
2022-09-25T01:27:37.781Z,22.16
2022-09-25T01:30:13.732Z,22.20
2022-09-25T01:32:51.795Z,22.20
2022-09-25T01:35:26.865Z,22.19
2022-09-25T01:37:59.996Z,22.19
2022-09-25T01:40:33.514Z,22.19
2022-09-25T01:43:11.443Z,22.19
2022-09-25T01:45:48.028Z,22.18
2022-09-25T01:48:18.899Z,22.17
2022-09-25T01:50:51.406Z,22.16
2022-09-25T01:53:24.645Z,22.15
2022-09-25T01:55:57.521Z,22.13
2022-09-25T01:58:30.528Z,21.83
2022-09-25T02:01:06.587Z,21.90
2022-09-25T02:03:41.099Z,21.86
2022-09-25T02:06:11.404Z,22.08
2022-09-25T02:08:45.450Z,21.35
2022-09-25T02:11:14.322Z,22.06
2022-09-25T02:13:48.104Z,22.04
2022-09-25T02:16:20.824Z,22.04
2022-09-25T02:19:08.038Z,22.02
2022-09-25T02:21:45.638Z,21.94
2022-09-25T02:24:20.847Z,22.02
2022-09-25T02:26:49.750Z,21.66
2022-09-25T02:29:18.336Z,22.02
2022-09-25T02:31:50.683Z,21.41
2022-09-25T02:34:18.820Z,22.01
2022-09-25T02:36:47.236Z,21.85
2022-09-25T02:39:21.362Z,22.02
2022-09-25T02:42:05.746Z,22.01
2022-09-25T02:44:42.213Z,22.01
2022-09-25T02:47:23.282Z,21.57
2022-09-25T02:49:59.348Z,21.92
2022-09-25T02:52:34.442Z,22.00
2022-09-25T02:55:08.636Z,21.82
2022-09-25T02:57:44.589Z,22.01
2022-09-25T03:00:14.391Z,21.33
2022-09-25T03:02:49.762Z,22.00
2022-09-25T03:05:21.457Z,21.71
2022-09-25T03:08:07.198Z,22.02
2022-09-25T03:10:37.919Z,22.00
2022-09-25T03:13:16.174Z,22.04
2022-09-25T03:15:47.715Z,21.84
2022-09-25T03:18:17.150Z,22.03
2022-09-25T03:20:45.257Z,21.90
2022-09-25T03:23:14.057Z,21.74
2022-09-25T03:25:45.958Z,22.03
2022-09-25T03:28:18.787Z,22.02
2022-09-25T03:30:58.325Z,21.92
2022-09-25T03:33:28.953Z,22.01
2022-09-25T03:36:08.550Z,21.57
2022-09-25T03:38:36.781Z,21.96
2022-09-25T03:41:05.686Z,21.72
2022-09-25T03:43:36.721Z,21.94
2022-09-25T03:46:05.339Z,21.93
2022-09-25T03:48:34.884Z,21.93
2022-09-25T03:51:02.953Z,21.63
2022-09-25T03:53:33.604Z,21.91
2022-09-25T03:56:02.304Z,21.91
2022-09-25T03:58:30.658Z,21.90
2022-09-25T04:00:58.646Z,21.88
2022-09-25T04:03:28.032Z,21.90
2022-09-25T04:05:58.132Z,21.09
2022-09-25T04:08:26.804Z,21.07
2022-09-25T04:10:56.348Z,21.89
2022-09-25T04:13:24.927Z,21.51
2022-09-25T04:15:52.986Z,21.60
2022-09-25T04:18:20.938Z,21.88
2022-09-25T04:20:48.858Z,21.78
2022-09-25T04:23:18.212Z,21.53
2022-09-25T04:25:46.566Z,21.88
2022-09-25T04:28:14.485Z,21.88
2022-09-25T04:30:42.398Z,21.69
2022-09-25T04:33:28.203Z,21.88
2022-09-25T04:35:56.608Z,21.85
2022-09-25T04:38:25.997Z,21.50
2022-09-25T04:40:53.978Z,21.85
2022-09-25T04:43:22.911Z,21.85
2022-09-25T04:45:51.763Z,21.85
2022-09-25T04:48:19.943Z,21.85
2022-09-25T04:50:51.626Z,21.86
2022-09-25T04:53:19.658Z,21.84
2022-09-25T04:55:48.925Z,21.85
2022-09-25T04:58:16.836Z,21.50
2022-09-25T05:00:44.843Z,21.75
2022-09-25T05:03:12.887Z,21.87
2022-09-25T05:05:40.819Z,21.88
2022-09-25T05:08:08.789Z,21.89
2022-09-25T05:10:39.573Z,21.90
2022-09-25T05:13:10.257Z,21.91
2022-09-25T05:15:38.222Z,21.89
2022-09-25T05:18:08.253Z,21.33
2022-09-25T05:20:37.265Z,21.30
2022-09-25T05:23:05.203Z,21.89
2022-09-25T05:25:33.472Z,21.56
2022-09-25T05:28:02.630Z,21.29
2022-09-25T05:30:33.386Z,21.87
2022-09-25T05:33:01.487Z,21.64
2022-09-25T05:35:30.891Z,21.86
2022-09-25T05:37:59.270Z,21.85
2022-09-25T05:40:27.829Z,21.84
2022-09-25T05:42:56.279Z,21.84
2022-09-25T05:45:25.000Z,21.82
2022-09-25T05:48:03.042Z,21.82
2022-09-25T05:50:32.448Z,21.72
2022-09-25T05:53:01.776Z,21.79
2022-09-25T05:55:29.986Z,21.71
2022-09-25T05:58:02.053Z,21.81
2022-09-25T06:00:32.771Z,21.81
2022-09-25T06:03:02.894Z,21.57
2022-09-25T06:05:31.125Z,21.81
2022-09-25T06:07:59.053Z,21.80
2022-09-25T06:10:27.418Z,21.80
2022-09-25T06:12:58.928Z,21.52
2022-09-25T06:15:27.987Z,21.68
2022-09-25T06:17:56.326Z,21.80
2022-09-25T06:20:26.071Z,21.79
2022-09-25T06:22:54.681Z,21.21
2022-09-25T06:25:23.783Z,21.68
2022-09-25T06:27:54.214Z,21.80
2022-09-25T06:30:22.495Z,21.53
2022-09-25T06:32:51.547Z,21.81
2022-09-25T06:35:19.500Z,21.75
2022-09-25T06:37:48.759Z,21.70
2022-09-25T06:40:16.882Z,21.65
2022-09-25T06:42:46.262Z,21.82
2022-09-25T06:45:14.518Z,21.38
2022-09-25T06:47:42.416Z,21.83
2022-09-25T06:50:12.353Z,21.84
2022-09-25T06:52:43.598Z,21.55
2022-09-25T06:55:12.971Z,21.47
2022-09-25T06:57:40.894Z,21.85
2022-09-25T07:00:10.231Z,21.39
2022-09-25T07:02:55.499Z,21.89
2022-09-25T07:05:23.484Z,21.89
2022-09-25T07:07:51.354Z,21.90
2022-09-25T07:10:20.597Z,21.62
2022-09-25T07:12:48.530Z,21.93
2022-09-25T07:15:16.697Z,21.65
2022-09-25T07:17:45.137Z,21.94
2022-09-25T07:20:15.469Z,21.94
2022-09-25T07:22:44.120Z,21.91
2022-09-25T07:25:12.837Z,21.97
2022-09-25T07:27:42.112Z,21.99
2022-09-25T07:30:11.303Z,21.99
2022-09-25T07:32:39.257Z,21.90
2022-09-25T07:35:07.693Z,22.02
2022-09-25T07:37:35.603Z,22.03
2022-09-25T07:40:03.596Z,22.04
2022-09-25T07:42:31.618Z,22.04
2022-09-25T07:45:00.872Z,21.75
2022-09-25T07:47:28.787Z,21.76
2022-09-25T07:49:56.680Z,22.08
2022-09-25T07:52:24.645Z,21.96
2022-09-25T07:54:52.646Z,22.03
2022-09-25T07:57:21.322Z,22.12
2022-09-25T07:59:49.475Z,22.00
2022-09-25T08:02:18.837Z,22.13
2022-09-25T08:04:46.873Z,22.03
2022-09-25T08:07:14.816Z,22.14
2022-09-25T08:09:42.771Z,22.16
2022-09-25T08:12:12.972Z,22.11
2022-09-25T08:14:41.846Z,22.17
2022-09-25T08:17:09.760Z,21.86
2022-09-25T08:19:39.015Z,22.10
2022-09-25T08:22:06.995Z,22.20
2022-09-25T08:24:34.962Z,22.21
2022-09-25T08:27:02.842Z,22.22
2022-09-25T08:29:31.149Z,22.23
2022-09-25T08:31:59.049Z,22.25
2022-09-25T08:34:42.981Z,22.21
2022-09-25T08:37:12.887Z,22.03
2022-09-25T08:39:40.774Z,21.70
2022-09-25T08:42:19.828Z,22.28
2022-09-25T08:45:21.935Z,22.18
2022-09-25T08:48:11.302Z,22.28
2022-09-25T08:50:39.314Z,22.16
2022-09-25T08:53:15.458Z,21.58
2022-09-25T08:56:00.848Z,22.31
2022-09-25T08:58:31.539Z,22.28
2022-09-25T09:01:03.420Z,22.32
2022-09-25T09:03:33.938Z,22.29
2022-09-25T09:06:05.872Z,22.21
2022-09-25T09:08:39.348Z,22.16
2022-09-25T09:11:13.734Z,22.40
2022-09-25T09:13:47.611Z,22.33
2022-09-25T09:16:24.387Z,22.43
2022-09-25T09:18:52.558Z,22.42
2022-09-25T09:21:26.565Z,22.45
2022-09-25T09:24:07.632Z,22.23
2022-09-25T09:26:52.106Z,22.42
2022-09-25T09:29:53.100Z,22.43
2022-09-25T09:32:37.697Z,22.50
2022-09-25T09:35:15.886Z,22.46
2022-09-25T09:37:54.300Z,22.53
2022-09-25T09:40:33.656Z,22.53
2022-09-25T09:43:07.492Z,22.49
2022-09-25T09:45:44.315Z,22.56
2022-09-25T09:48:18.645Z,22.57
2022-09-25T09:50:52.845Z,22.58
2022-09-25T09:53:30.966Z,22.60
2022-09-25T09:56:05.699Z,22.62
2022-09-25T09:58:45.113Z,22.64
2022-09-25T10:01:36.551Z,22.65
2022-09-25T10:04:06.225Z,22.66
2022-09-25T10:06:38.757Z,22.67
2022-09-25T10:09:08.805Z,22.69
2022-09-25T10:11:39.044Z,22.70
2022-09-25T10:14:07.074Z,22.50
2022-09-25T10:16:35.304Z,22.72
2022-09-25T10:19:07.546Z,22.74
2022-09-25T10:21:41.434Z,22.77
2022-09-25T10:24:09.666Z,22.77
2022-09-25T10:26:40.707Z,22.80
2022-09-25T10:29:27.722Z,22.82
2022-09-25T10:32:00.882Z,22.84
2022-09-25T10:34:29.738Z,22.83
2022-09-25T10:36:58.091Z,22.85
2022-09-25T10:39:44.180Z,22.88
2022-09-25T10:42:38.614Z,22.90
2022-09-25T10:45:31.859Z,22.91
2022-09-25T10:48:17.340Z,22.73
2022-09-25T10:50:45.838Z,22.91
2022-09-25T10:53:30.423Z,22.94
2022-09-25T10:56:05.152Z,22.49
2022-09-25T10:58:40.522Z,22.96
2022-09-25T11:01:13.752Z,22.96
2022-09-25T11:03:50.436Z,23.00
2022-09-25T11:06:24.870Z,23.00
2022-09-25T11:09:07.720Z,22.96
2022-09-25T11:11:36.805Z,23.02
2022-09-25T11:14:08.661Z,23.04
2022-09-25T11:16:48.700Z,23.05
2022-09-25T11:19:22.708Z,23.05
2022-09-25T11:22:04.840Z,23.07
2022-09-25T11:24:47.093Z,23.07
2022-09-25T11:27:21.653Z,23.07
2022-09-25T11:30:02.550Z,22.92
2022-09-25T11:32:40.061Z,23.10
2022-09-25T11:35:22.663Z,23.07
2022-09-25T11:38:04.005Z,23.11
2022-09-25T11:40:58.419Z,23.11
2022-09-25T11:43:38.914Z,22.94
2022-09-25T11:46:24.271Z,22.99
2022-09-25T11:49:01.690Z,23.10
2022-09-25T11:51:50.509Z,23.11
2022-09-25T11:54:33.755Z,23.10
2022-09-25T11:57:07.647Z,23.10
2022-09-25T11:59:52.818Z,23.11
2022-09-25T12:02:41.770Z,23.11
2022-09-25T12:05:35.124Z,23.11
2022-09-25T12:08:20.021Z,23.10
2022-09-25T12:10:58.335Z,23.11
2022-09-25T12:13:39.724Z,23.10
2022-09-25T12:16:18.624Z,23.12
2022-09-25T12:19:08.706Z,23.11
2022-09-25T12:21:47.879Z,23.13
2022-09-25T12:24:30.553Z,23.12
2022-09-25T12:27:10.384Z,23.13
2022-09-25T12:30:16.727Z,23.14
2022-09-25T12:33:09.326Z,23.12
2022-09-25T12:35:44.763Z,23.13
2022-09-25T12:38:23.541Z,23.14
2022-09-25T12:40:56.739Z,23.14
2022-09-25T12:43:29.068Z,23.16
2022-09-25T12:46:03.567Z,23.16
2022-09-25T12:48:37.420Z,23.16
2022-09-25T12:51:13.343Z,23.17
2022-09-25T12:53:45.532Z,23.14
2022-09-25T12:56:17.629Z,23.15
2022-09-25T12:58:53.158Z,23.16
2022-09-25T13:01:28.029Z,23.08
2022-09-25T13:04:06.054Z,23.17
2022-09-25T13:06:46.853Z,23.17
2022-09-25T13:09:24.041Z,23.15
2022-09-25T13:11:57.382Z,23.15
2022-09-25T13:14:33.075Z,23.14
2022-09-25T13:17:01.237Z,23.13
2022-09-25T13:19:32.440Z,22.88
2022-09-25T13:22:07.262Z,23.14
2022-09-25T13:24:43.784Z,23.15
2022-09-25T13:27:18.933Z,23.15
2022-09-25T13:29:57.794Z,23.08
2022-09-25T13:32:29.131Z,23.14
2022-09-25T13:35:01.490Z,23.13
2022-09-25T13:37:34.357Z,23.00
2022-09-25T13:40:31.609Z,23.09
2022-09-25T13:43:18.268Z,23.08
2022-09-25T13:45:46.504Z,23.07
2022-09-25T13:48:34.221Z,23.07
2022-09-25T13:51:35.757Z,23.08
2022-09-25T13:54:25.221Z,23.08
2022-09-25T13:56:55.256Z,23.08
2022-09-25T13:59:25.733Z,22.95
2022-09-25T14:01:56.834Z,23.10
2022-09-25T14:04:31.846Z,23.11
2022-09-25T14:07:18.898Z,23.10
2022-09-25T14:09:53.637Z,23.12
2022-09-25T14:12:35.038Z,23.14
2022-09-25T14:15:07.341Z,23.06
2022-09-25T14:17:37.469Z,23.14
2022-09-25T14:20:11.201Z,23.00
2022-09-25T14:22:44.558Z,23.15
2022-09-25T14:25:33.068Z,23.17
2022-09-25T14:28:01.661Z,23.14
2022-09-25T14:30:31.540Z,23.17
2022-09-25T14:33:35.538Z,23.18
2022-09-25T14:36:11.496Z,23.17
2022-09-25T14:38:57.669Z,23.18
2022-09-25T14:41:53.050Z,23.06
2022-09-25T14:44:55.657Z,23.18
2022-09-25T14:47:23.773Z,23.18
2022-09-25T14:49:54.235Z,23.19
2022-09-25T14:52:25.586Z,23.21
2022-09-25T14:54:57.088Z,23.22
2022-09-25T14:57:30.066Z,23.22
2022-09-25T15:00:02.689Z,23.24
2022-09-25T15:02:35.301Z,23.24
2022-09-25T15:05:18.949Z,23.24
2022-09-25T15:07:47.729Z,23.24
2022-09-25T15:10:28.948Z,23.26
2022-09-25T15:13:07.254Z,23.10
2022-09-25T15:15:35.820Z,23.25
2022-09-25T15:18:04.807Z,23.26
2022-09-25T15:20:34.596Z,23.26
2022-09-25T15:23:06.741Z,23.28
2022-09-25T15:25:39.228Z,23.28
2022-09-25T15:28:10.082Z,23.17
2022-09-25T15:30:40.078Z,23.29
2022-09-25T15:33:20.974Z,23.29
2022-09-25T15:35:55.753Z,23.15
2022-09-25T15:38:30.510Z,23.30
2022-09-25T15:40:59.247Z,23.29
2022-09-25T15:43:30.041Z,23.30
2022-09-25T15:45:59.488Z,23.30
2022-09-25T15:48:32.758Z,23.32
2022-09-25T15:51:06.782Z,23.30
2022-09-25T15:53:39.883Z,23.28
2022-09-25T15:56:17.859Z,23.31
2022-09-25T15:58:51.192Z,23.31
2022-09-25T16:01:40.656Z,23.19
2022-09-25T16:04:28.621Z,23.32
2022-09-25T16:06:56.565Z,23.28
2022-09-25T16:09:31.767Z,23.33
2022-09-25T16:12:20.313Z,23.34
2022-09-25T16:14:50.522Z,23.34
2022-09-25T16:17:24.628Z,23.39
2022-09-25T16:20:04.193Z,23.40
2022-09-25T16:22:45.820Z,23.40
2022-09-25T16:25:21.113Z,23.40
2022-09-25T16:27:49.566Z,23.39
2022-09-25T16:30:22.329Z,23.36
2022-09-25T16:32:53.265Z,23.41
2022-09-25T16:35:26.062Z,23.27
2022-09-25T16:37:54.789Z,23.42
2022-09-25T16:40:26.542Z,23.26
2022-09-25T16:42:56.890Z,23.44
2022-09-25T16:45:29.719Z,23.45
2022-09-25T16:47:58.891Z,23.41
2022-09-25T16:50:29.237Z,23.46
2022-09-25T16:52:57.112Z,23.45
2022-09-25T16:55:27.421Z,23.46
2022-09-25T16:57:56.622Z,23.47
2022-09-25T17:00:28.776Z,23.50
2022-09-25T17:02:57.211Z,23.50
2022-09-25T17:05:27.650Z,23.51
2022-09-25T17:07:57.855Z,23.50
2022-09-25T17:10:28.661Z,23.50
2022-09-25T17:12:59.051Z,23.49
2022-09-25T17:15:32.771Z,23.49
2022-09-25T17:18:02.048Z,23.33
2022-09-25T17:20:32.032Z,23.49
2022-09-25T17:23:00.433Z,23.50
2022-09-25T17:25:39.875Z,23.49
2022-09-25T17:28:09.470Z,23.49
2022-09-25T17:30:39.478Z,23.49
2022-09-25T17:33:08.022Z,23.49
2022-09-25T17:35:41.510Z,23.50
2022-09-25T17:38:09.978Z,23.47
2022-09-25T17:40:37.930Z,23.50
2022-09-25T17:43:06.082Z,23.50
2022-09-25T17:45:44.761Z,23.52
2022-09-25T17:48:13.100Z,23.52
2022-09-25T17:50:41.088Z,23.51
2022-09-25T17:53:17.238Z,23.54
2022-09-25T17:55:51.216Z,23.51
2022-09-25T17:58:22.109Z,23.48
2022-09-25T18:00:52.448Z,23.54
2022-09-25T18:03:21.526Z,23.54
2022-09-25T18:05:49.759Z,23.54
2022-09-25T18:08:18.096Z,23.54
2022-09-25T18:10:46.573Z,23.55
2022-09-25T18:13:20.052Z,23.50
2022-09-25T18:15:51.079Z,23.55
2022-09-25T18:18:20.938Z,23.56
2022-09-25T18:21:09.334Z,23.56
2022-09-25T18:23:39.101Z,23.54
2022-09-25T18:26:10.121Z,23.55
2022-09-25T18:28:38.292Z,23.54
2022-09-25T18:31:07.092Z,23.55
2022-09-25T18:33:39.003Z,23.50
2022-09-25T18:36:09.079Z,23.55
2022-09-25T18:38:39.146Z,23.56
2022-09-25T18:41:07.908Z,23.57
2022-09-25T18:43:36.183Z,23.24
2022-09-25T18:46:04.487Z,23.57
2022-09-25T18:48:32.686Z,23.58
2022-09-25T18:51:05.755Z,23.60
2022-09-25T18:53:33.919Z,23.58
2022-09-25T18:56:02.514Z,23.58
2022-09-25T18:58:32.857Z,23.59
2022-09-25T19:01:01.700Z,23.60
2022-09-25T19:03:30.297Z,23.59
2022-09-25T19:06:01.571Z,23.62
2022-09-25T19:08:31.566Z,23.59
2022-09-25T19:11:01.749Z,23.64
2022-09-25T19:13:31.441Z,23.50
2022-09-25T19:16:01.328Z,23.62
2022-09-25T19:18:31.654Z,23.67
2022-09-25T19:21:02.019Z,23.67
2022-09-25T19:23:35.528Z,23.68
2022-09-25T19:26:06.822Z,23.68
2022-09-25T19:28:36.967Z,23.67
2022-09-25T19:31:07.750Z,23.67
2022-09-25T19:33:39.190Z,23.70
2022-09-25T19:36:09.646Z,23.70
2022-09-25T19:38:41.662Z,23.71
2022-09-25T19:41:13.827Z,23.71
2022-09-25T19:43:42.604Z,23.70
2022-09-25T19:46:14.499Z,23.71
2022-09-25T19:48:43.764Z,23.70
2022-09-25T19:51:12.169Z,23.72
2022-09-25T19:53:42.976Z,23.73
2022-09-25T19:56:12.170Z,23.73
2022-09-25T19:58:40.839Z,23.74
2022-09-25T20:01:13.096Z,23.75
2022-09-25T20:03:42.761Z,23.75
2022-09-25T20:06:11.756Z,23.74
2022-09-25T20:08:41.570Z,23.76
2022-09-25T20:11:18.613Z,23.79
2022-09-25T20:13:48.131Z,23.76
2022-09-25T20:16:18.429Z,23.80
2022-09-25T20:18:49.397Z,23.80
2022-09-25T20:21:21.374Z,23.79
2022-09-25T20:23:52.602Z,23.80
2022-09-25T20:26:21.507Z,23.81
2022-09-25T20:28:53.761Z,23.82
2022-09-25T20:31:22.597Z,23.81
2022-09-25T20:33:50.542Z,23.82
2022-09-25T20:36:19.247Z,23.83
2022-09-25T20:38:51.686Z,23.84
2022-09-25T20:41:20.533Z,23.78
2022-09-25T20:43:51.146Z,23.84
2022-09-25T20:46:20.450Z,23.84
2022-09-25T20:48:51.134Z,23.85
2022-09-25T20:51:21.162Z,23.85
2022-09-25T20:53:52.516Z,23.87
2022-09-25T20:56:21.851Z,23.87
2022-09-25T20:58:53.260Z,23.86
2022-09-25T21:01:24.422Z,23.87
2022-09-25T21:03:53.336Z,23.87
2022-09-25T21:06:23.742Z,23.88
2022-09-25T21:08:54.874Z,23.88
2022-09-25T21:11:24.233Z,23.88
2022-09-25T21:13:53.642Z,23.88
2022-09-25T21:16:23.106Z,23.90
2022-09-25T21:18:53.772Z,23.92
2022-09-25T21:21:21.734Z,23.92
2022-09-25T21:23:51.604Z,23.92
2022-09-25T21:26:21.896Z,23.93
2022-09-25T21:28:51.591Z,23.94
2022-09-25T21:31:21.832Z,23.95
2022-09-25T21:33:52.077Z,23.94
2022-09-25T21:36:20.584Z,23.95
2022-09-25T21:38:49.180Z,23.94
2022-09-25T21:41:18.877Z,23.96
2022-09-25T21:43:48.410Z,23.97
2022-09-25T21:46:18.736Z,23.98
2022-09-25T21:48:49.963Z,23.98
2022-09-25T21:51:19.687Z,23.99
2022-09-25T21:53:48.019Z,23.99
2022-09-25T21:56:17.354Z,24.00
2022-09-25T21:58:45.868Z,23.99
2022-09-25T22:01:17.375Z,24.00
2022-09-25T22:03:48.138Z,24.01
2022-09-25T22:06:18.412Z,24.00
2022-09-25T22:08:49.368Z,24.01
2022-09-25T22:11:17.894Z,24.00
2022-09-25T22:13:47.354Z,24.01
2022-09-25T22:16:19.392Z,24.02
2022-09-25T22:18:49.869Z,24.01
2022-09-25T22:21:20.319Z,23.99
2022-09-25T22:23:48.853Z,24.02
2022-09-25T22:26:18.190Z,24.02
2022-09-25T22:28:46.533Z,23.86
2022-09-25T22:31:17.691Z,24.03
2022-09-25T22:33:46.532Z,24.03
2022-09-25T22:36:14.783Z,24.01
2022-09-25T22:38:42.769Z,24.03
2022-09-25T22:41:13.180Z,24.04
2022-09-25T22:43:42.401Z,24.03
2022-09-25T22:46:12.000Z,24.04
2022-09-25T22:48:41.344Z,24.05
2022-09-25T22:51:12.896Z,24.06
2022-09-25T22:53:42.688Z,24.04
2022-09-25T22:56:13.081Z,23.82
2022-09-25T22:58:41.962Z,23.98
2022-09-25T23:01:13.340Z,23.98
2022-09-25T23:03:42.800Z,23.94
2022-09-25T23:06:10.767Z,23.90
2022-09-25T23:08:38.642Z,23.88
2022-09-25T23:11:08.569Z,23.88
2022-09-25T23:13:37.334Z,23.86
2022-09-25T23:16:07.382Z,23.84
2022-09-25T23:18:35.787Z,23.78
2022-09-25T23:21:05.526Z,23.79
2022-09-25T23:23:33.627Z,23.80
2022-09-25T23:26:03.504Z,23.77
2022-09-25T23:28:33.522Z,23.76
2022-09-25T23:31:07.334Z,23.74
2022-09-25T23:33:35.585Z,23.71
2022-09-25T23:36:06.666Z,23.69
2022-09-25T23:38:34.907Z,23.67
2022-09-25T23:41:03.411Z,23.66
2022-09-25T23:43:31.329Z,23.64
2022-09-25T23:45:59.260Z,23.50
2022-09-25T23:48:27.132Z,23.61
2022-09-25T23:50:55.027Z,23.50
2022-09-25T23:53:24.297Z,23.60
2022-09-25T23:55:52.157Z,23.56
2022-09-25T23:58:20.095Z,23.56
